Time;durP1;ratioP1;P1;durP2;ratioP2;P2;SDS_P1;SDS_P2;PMS_P1;PMS_P2;Temp;Humidity;BMP_temperature;BMP_pressure;BME280_temperature;BME280_humidity;BME280_pressure;Samples;Min_cycle;Max_cycle;Signal;HPM_P1;HPM_P2
2022/11/05 00:11:11;;;;;;;25.27;11.45;;;5.00;99.90;;;;;;5035980;28;20488;-70
2022/11/05 00:19:09;;;;;;;34.15;15.23;;;4.90;99.90;;;;;;5078588;28;20082;-69
2022/11/05 00:27:10;;;;;;;29.25;12.25;;;5.00;99.90;;;;;;5078106;28;20554;-70
2022/11/05 00:29:37;;;;;;;20.95;9.25;;;5.00;99.90;;;;;;5078599;28;20031;-70
2022/11/05 00:32:06;;;;;;;21.50;9.52;;;4.90;99.90;;;;;;5078431;28;20099;-69
2022/11/05 00:34:33;;;;;;;18.92;10.15;;;4.90;99.90;;;;;;5077931;28;20020;-69
2022/11/05 00:37:01;;;;;;;18.60;9.55;;;4.90;99.90;;;;;;5060021;28;20067;-69
2022/11/05 00:39:28;;;;;;;21.90;9.70;;;4.90;99.90;;;;;;5078282;28;20048;-69
2022/11/05 00:45:00;;;;;;;17.65;9.45;;;4.80;99.90;;;;;;5078225;28;20031;-69
2022/11/05 00:50:14;;;;;;;18.58;8.45;;;4.70;99.90;;;;;;5077821;28;20070;-70
2022/11/05 00:53:00;;;;;;;18.45;9.18;;;4.60;99.90;;;;;;5060749;28;20024;-69
2022/11/05 00:55:43;;;;;;;16.73;7.97;;;4.60;99.90;;;;;;5076430;28;20033;-69
2022/11/05 00:58:14;;;;;;;15.18;8.43;;;4.50;99.90;;;;;;5077081;28;20063;-70
2022/11/05 01:00:44;;;;;;;23.10;11.93;;;4.50;99.90;;;;;;5059630;28;20028;-69
2022/11/05 01:03:15;;;;;;;30.58;14.07;;;4.50;99.90;;;;;;5077499;28;20052;-70
2022/11/05 01:05:45;;;;;;;32.03;13.05;;;4.50;99.90;;;;;;5077809;28;20397;-69
2022/11/05 01:08:14;;;;;;;27.77;12.82;;;4.60;99.90;;;;;;5077258;28;20099;-70
2022/11/05 01:10:43;;;;;;;26.52;12.57;;;4.50;99.90;;;;;;5059438;28;20032;-69
2022/11/05 01:13:11;;;;;;;32.58;14.68;;;4.50;99.90;;;;;;5077250;28;20390;-70
2022/11/05 01:15:39;;;;;;;32.90;14.27;;;4.50;99.90;;;;;;5077464;28;20025;-70
2022/11/05 01:18:07;;;;;;;28.67;14.43;;;4.50;99.90;;;;;;5059621;28;20027;-69
2022/11/05 01:20:34;;;;;;;28.73;14.82;;;4.50;99.90;;;;;;5059957;28;20400;-69
2022/11/05 01:23:02;;;;;;;42.58;15.90;;;4.50;99.90;;;;;;5059387;28;20025;-69
2022/11/05 01:25:29;;;;;;;40.15;16.58;;;4.50;99.90;;;;;;5077472;28;20401;-70
2022/11/05 01:27:56;;;;;;;37.03;15.88;;;4.50;99.90;;;;;;5076176;28;20111;-70
2022/11/05 01:30:24;;;;;;;44.20;17.15;;;4.50;99.90;;;;;;5077293;28;20293;-70
2022/11/05 01:32:51;;;;;;;50.90;17.52;;;4.40;99.90;;;;;;5077053;28;20024;-69
2022/11/05 01:35:19;;;;;;;45.30;16.45;;;4.50;99.90;;;;;;5077065;28;20431;-70
2022/11/05 01:37:47;;;;;;;48.67;17.65;;;4.50;99.90;;;;;;5077311;28;20078;-70
2022/11/05 01:40:20;;;;;;;40.88;16.80;;;4.40;99.90;;;;;;5058943;28;20313;-69
2022/11/05 01:42:48;;;;;;;44.75;16.77;;;4.40;99.90;;;;;;5077382;28;20157;-69
2022/11/05 01:45:28;;;;;;;36.63;15.88;;;4.40;99.90;;;;;;5058865;28;20324;-69
2022/11/05 01:48:13;;;;;;;40.65;17.90;;;4.30;99.90;;;;;;5076572;28;20021;-69
2022/11/05 01:50:42;;;;;;;43.42;16.95;;;4.40;99.90;;;;;;5077148;28;20100;-70
2022/11/05 01:53:19;;;;;;;51.97;19.75;;;4.30;99.90;;;;;;5058788;28;20120;-69
2022/11/05 01:56:03;;;;;;;46.97;17.17;;;4.30;99.90;;;;;;5077134;28;20033;-69
2022/11/05 01:58:40;;;;;;;39.63;15.63;;;4.20;99.90;;;;;;5076107;28;20098;-70
2022/11/05 02:01:07;;;;;;;43.97;17.73;;;4.20;99.90;;;;;;5076442;28;20024;-69
2022/11/05 02:03:35;;;;;;;34.45;15.27;;;4.10;99.90;;;;;;5058729;28;20071;-69
2022/11/05 02:06:08;;;;;;;33.67;14.70;;;4.00;99.90;;;;;;5077003;28;20028;-69
2022/11/05 02:09:20;;;;;;;31.98;13.35;;;4.00;99.90;;;;;;5076891;28;20074;-69
2022/11/05 02:11:50;;;;;;;29.98;13.15;;;4.00;99.90;;;;;;5073796;28;20106;-69
2022/11/05 02:14:17;;;;;;;30.13;13.02;;;3.90;99.90;;;;;;5076416;28;20025;-69
2022/11/05 02:16:54;;;;;;;28.45;12.25;;;3.80;99.90;;;;;;5058436;28;20028;-69
2022/11/05 02:19:48;;;;;;;31.25;11.27;;;3.80;99.90;;;;;;5077025;28;20024;-69
2022/11/05 02:22:27;;;;;;;31.20;12.15;;;3.80;99.90;;;;;;5051946;28;20119;-70
2022/11/05 02:25:14;;;;;;;24.80;12.05;;;3.80;99.90;;;;;;5076843;28;20466;-70
2022/11/05 02:28:20;;;;;;;23.95;10.90;;;3.70;99.90;;;;;;5076831;28;20468;-69
2022/11/05 02:31:12;;;;;;;22.63;10.60;;;3.60;99.90;;;;;;5058410;28;20031;-69
2022/11/05 02:33:55;;;;;;;22.65;10.88;;;3.60;99.90;;;;;;5058519;28;20025;-69
2022/11/05 02:36:53;;;;;;;29.58;11.55;;;3.60;99.90;;;;;;5076075;28;20361;-69
2022/11/05 02:39:28;;;;;;;27.75;12.82;;;3.60;99.90;;;;;;5059977;28;20116;-70
2022/11/05 02:42:18;;;;;;;36.67;14.27;;;3.70;99.90;;;;;;5080072;28;20421;-69
2022/11/05 02:44:52;;;;;;;34.30;13.95;;;3.70;99.90;;;;;;5080589;28;20025;-69
2022/11/05 02:47:41;;;;;;;28.02;13.23;;;3.80;99.90;;;;;;5079763;28;20047;-69
2022/11/05 02:50:34;;;;;;;33.83;13.50;;;3.90;99.90;;;;;;5079903;28;20017;-69
2022/11/05 02:53:10;;;;;;;28.95;13.23;;;4.00;99.90;;;;;;5080132;28;20044;-69
2022/11/05 02:56:05;;;;;;;27.00;12.10;;;4.00;99.90;;;;;;5063469;28;20013;-69
2022/11/05 02:58:34;;;;;;;28.45;11.98;;;4.10;99.90;;;;;;5079535;28;20052;-70
2022/11/05 03:01:05;;;;;;;28.38;13.98;;;4.10;99.90;;;;;;5079517;28;20078;-69
2022/11/05 03:03:44;;;;;;;29.23;12.77;;;4.10;99.90;;;;;;5079944;28;20286;-69
2022/11/05 03:06:38;;;;;;;28.17;13.80;;;4.20;99.90;;;;;;5079589;28;20316;-69
2022/11/05 03:09:21;;;;;;;27.13;12.55;;;4.20;99.90;;;;;;5080287;28;20070;-69
2022/11/05 03:12:10;;;;;;;23.50;11.82;;;4.20;99.90;;;;;;5080061;28;20405;-69
2022/11/05 03:14:58;;;;;;;24.17;11.55;;;4.10;99.90;;;;;;5079784;28;20025;-69
2022/11/05 03:17:51;;;;;;;28.30;10.73;;;4.10;99.90;;;;;;5079272;28;20021;-70
2022/11/05 03:20:57;;;;;;;21.15;9.95;;;4.00;99.90;;;;;;5061590;28;20024;-69
2022/11/05 03:23:42;;;;;;;23.70;11.18;;;3.90;99.90;;;;;;5079642;28;20020;-69
2022/11/05 03:26:16;;;;;;;22.73;10.55;;;3.90;99.90;;;;;;5079263;28;20055;-69
2022/11/05 03:28:50;;;;;;;22.90;9.98;;;3.80;99.90;;;;;;5079932;28;20100;-69
2022/11/05 03:31:19;;;;;;;26.13;11.70;;;3.70;99.90;;;;;;5079113;28;20021;-69
2022/11/05 03:33:47;;;;;;;25.85;10.27;;;3.70;99.90;;;;;;5061402;28;20050;-69
2022/11/05 03:36:27;;;;;;;26.77;10.02;;;3.60;99.90;;;;;;5079056;28;20077;-69
2022/11/05 03:38:59;;;;;;;22.20;11.23;;;3.60;99.90;;;;;;5079703;28;20025;-69
2022/11/05 03:41:28;;;;;;;28.73;11.27;;;3.50;99.90;;;;;;5061225;28;20021;-69
2022/11/05 03:44:02;;;;;;;26.70;12.48;;;3.50;99.90;;;;;;5078981;28;20409;-69
2022/11/05 03:46:40;;;;;;;28.33;12.38;;;3.40;99.90;;;;;;5061044;28;20111;-69
2022/11/05 03:49:11;;;;;;;25.52;11.50;;;3.40;99.90;;;;;;5079573;28;20039;-69
2022/11/05 03:52:07;;;;;;;23.10;11.95;;;3.30;99.90;;;;;;5077973;28;20096;-69
2022/11/05 03:54:35;;;;;;;38.22;10.60;;;3.30;99.90;;;;;;5078771;28;20108;-69
2022/11/05 03:57:09;;;;;;;30.65;11.82;;;3.30;99.90;;;;;;5060877;28;20031;-69
2022/11/05 03:59:43;;;;;;;25.75;11.50;;;3.20;99.90;;;;;;5078777;28;20052;-69
2022/11/05 04:02:13;;;;;;;32.53;12.85;;;3.30;99.90;;;;;;5078546;28;20024;-69
2022/11/05 04:04:40;;;;;;;32.58;12.55;;;3.30;99.90;;;;;;5078610;28;20017;-69
2022/11/05 04:15:28;;;;;;;43.93;16.27;;;3.60;99.90;;;;;;5078339;28;20051;-70
2022/11/05 04:17:57;;;;;;;33.95;15.35;;;3.70;99.90;;;;;;5078591;28;20032;-69
2022/11/05 04:25:56;;;;;;;53.30;17.30;;;4.00;99.90;;;;;;5078720;28;20385;-69
2022/11/05 04:30:17;;;;;;;57.55;17.25;;;4.10;99.90;;;;;;5078762;28;20028;-70
2022/11/05 04:31:11;;;;;;;47.55;15.90;;;4.20;99.90;;;;;;5077626;28;20320;-70
2022/11/05 04:33:38;;;;;;;49.92;15.57;;;4.30;99.90;;;;;;5078573;28;20052;-70
2022/11/05 04:36:06;;;;;;;52.35;17.95;;;4.30;99.90;;;;;;5077895;28;20021;-69
2022/11/05 04:38:34;;;;;;;59.25;17.02;;;4.20;99.90;;;;;;5078347;28;20027;-69
2022/11/05 04:41:21;;;;;;;65.03;18.48;;;4.20;99.90;;;;;;5077773;28;20364;-69
2022/11/05 04:43:48;;;;;;;47.42;15.98;;;4.20;99.90;;;;;;5078447;28;20044;-69
2022/11/05 04:46:15;;;;;;;46.97;15.98;;;4.30;99.90;;;;;;5077605;28;20024;-69
2022/11/05 04:48:43;;;;;;;55.65;16.48;;;4.20;99.90;;;;;;5077701;28;20024;-70
2022/11/05 04:51:10;;;;;;;55.83;17.33;;;4.20;99.90;;;;;;5043311;28;20025;-70
2022/11/05 04:53:37;;;;;;;48.80;16.67;;;4.20;99.90;;;;;;5077723;28;20365;-70
2022/11/05 04:56:18;;;;;;;66.63;19.08;;;4.10;99.90;;;;;;5077415;28;20021;-70
2022/11/05 04:58:47;;;;;;;60.63;17.80;;;4.20;99.90;;;;;;5056257;28;20346;-70
2022/11/05 05:01:16;;;;;;;53.25;16.92;;;4.20;99.90;;;;;;5057388;28;20043;-69
2022/11/05 05:03:47;;;;;;;48.70;15.73;;;4.20;99.90;;;;;;5058079;28;20025;-70
2022/11/05 05:06:15;;;;;;;48.28;15.07;;;4.20;99.90;;;;;;5057283;28;20135;-70
2022/11/05 05:08:42;;;;;;;42.92;14.57;;;4.10;99.90;;;;;;5057369;28;20025;-70
2022/11/05 05:11:13;;;;;;;45.47;15.60;;;4.10;99.90;;;;;;5057291;28;20352;-70
2022/11/05 05:13:40;;;;;;;41.58;14.38;;;4.10;99.90;;;;;;5056368;28;20566;-70
2022/11/05 05:16:16;;;;;;;43.92;14.45;;;4.10;99.90;;;;;;5057092;28;20028;-69
2022/11/05 05:18:43;;;;;;;43.65;13.55;;;4.10;99.90;;;;;;5057684;28;20049;-69
2022/11/05 05:23:56;;;;;;;30.63;13.10;;;4.00;99.90;;;;;;5057532;28;20036;-70
2022/11/05 05:26:23;;;;;;;46.03;15.23;;;4.10;99.90;;;;;;5055920;28;20025;-70
2022/11/05 05:28:52;;;;;;;45.33;15.80;;;4.10;99.90;;;;;;5057591;28;20313;-70
2022/11/05 05:31:20;;;;;;;45.20;15.48;;;4.20;99.90;;;;;;5056872;28;20425;-70
2022/11/05 05:33:48;;;;;;;53.08;16.30;;;4.30;99.90;;;;;;5057032;28;20072;-70
2022/11/05 05:36:16;;;;;;;45.70;15.52;;;4.30;99.90;;;;;;5055742;28;20025;-70
2022/11/05 05:38:43;;;;;;;45.72;15.27;;;4.40;99.90;;;;;;5056724;28;20417;-70
2022/11/05 05:41:10;;;;;;;38.65;13.80;;;4.40;99.90;;;;;;5055667;28;20064;-70
2022/11/05 05:43:38;;;;;;;45.80;13.98;;;4.50;99.90;;;;;;5057423;28;20063;-70
2022/11/05 05:46:09;;;;;;;36.83;13.52;;;4.60;99.90;;;;;;5056925;28;20096;-70
2022/11/05 05:48:38;;;;;;;37.78;13.40;;;4.60;99.90;;;;;;5056960;28;20021;-70
2022/11/05 05:51:08;;;;;;;37.03;12.68;;;4.70;99.90;;;;;;5057197;28;20028;-69
2022/11/05 05:53:35;;;;;;;30.80;12.98;;;4.70;99.90;;;;;;5056716;28;20329;-70
2022/11/05 05:56:03;;;;;;;35.53;13.43;;;4.80;99.90;;;;;;5072794;28;20060;-70
2022/11/05 05:58:36;;;;;;;36.58;12.35;;;4.80;99.90;;;;;;5058711;28;20375;-70
2022/11/05 06:01:11;;;;;;;36.38;14.45;;;4.90;99.90;;;;;;5076436;28;20013;-70
2022/11/05 06:03:39;;;;;;;32.03;12.63;;;4.90;99.90;;;;;;5077183;28;20104;-69
2022/11/05 06:06:14;;;;;;;29.52;13.25;;;4.90;99.90;;;;;;5076988;28;20040;-69
2022/11/05 06:08:42;;;;;;;28.33;12.18;;;5.00;99.90;;;;;;5076795;28;20412;-69
2022/11/05 06:11:11;;;;;;;32.13;13.10;;;5.10;99.90;;;;;;5076444;28;20032;-70
2022/11/05 06:13:38;;;;;;;38.90;14.65;;;5.10;99.90;;;;;;5060139;28;20078;-70
2022/11/05 06:16:09;;;;;;;30.35;12.88;;;5.10;99.90;;;;;;5082941;28;20039;-70
2022/11/05 06:18:37;;;;;;;32.53;12.88;;;5.20;99.90;;;;;;5083196;28;20158;-70
2022/11/05 06:21:06;;;;;;;32.47;11.82;;;5.20;99.90;;;;;;5082958;28;20092;-70
2022/11/05 06:23:35;;;;;;;32.83;13.15;;;5.30;99.90;;;;;;5083960;28;20031;-70
2022/11/05 06:26:11;;;;;;;40.13;14.05;;;5.30;99.90;;;;;;5082944;28;20020;-70
2022/11/05 06:28:38;;;;;;;33.20;13.32;;;5.30;99.90;;;;;;5083287;28;20078;-70
2022/11/05 06:31:06;;;;;;;29.60;11.85;;;5.30;99.90;;;;;;5082796;28;20107;-70
2022/11/05 06:33:33;;;;;;;27.45;12.95;;;5.40;99.90;;;;;;5083623;28;20106;-70
2022/11/05 06:36:02;;;;;;;30.67;12.45;;;5.40;99.90;;;;;;5065527;28;20021;-71
2022/11/05 06:38:32;;;;;;;32.67;12.80;;;5.50;99.90;;;;;;5082753;28;20031;-71
2022/11/05 06:41:00;;;;;;;34.35;13.57;;;5.50;99.90;;;;;;5082825;28;20099;-71
2022/11/05 06:43:28;;;;;;;36.88;13.57;;;5.50;99.90;;;;;;5082885;28;20024;-70
2022/11/05 06:45:56;;;;;;;34.30;13.32;;;5.50;99.90;;;;;;5082697;28;20017;-70
2022/11/05 06:48:24;;;;;;;41.15;14.48;;;5.50;99.90;;;;;;5065564;28;20086;-70
2022/11/05 06:50:52;;;;;;;35.65;13.77;;;5.60;99.90;;;;;;5082303;28;20055;-70
2022/11/05 06:53:19;;;;;;;40.10;14.20;;;5.60;99.90;;;;;;5083182;28;20058;-70
2022/11/05 06:55:47;;;;;;;33.95;12.43;;;5.70;99.90;;;;;;5082669;28;20024;-73
2022/11/05 06:58:15;;;;;;;36.15;13.82;;;5.70;99.90;;;;;;5082353;28;20435;-71
2022/11/05 07:00:42;;;;;;;36.72;13.07;;;5.80;99.90;;;;;;5082589;28;20032;-71
2022/11/05 07:03:11;;;;;;;38.28;14.27;;;5.80;99.90;;;;;;5082786;28;20012;-73
2022/11/05 07:05:45;;;;;;;35.00;13.43;;;6.00;99.90;;;;;;5082661;28;20018;-72
2022/11/05 07:08:16;;;;;;;39.22;13.77;;;6.10;99.90;;;;;;5083367;28;20399;-73
2022/11/05 07:10:43;;;;;;;37.80;13.93;;;6.20;99.90;;;;;;5082824;28;20086;-75
2022/11/05 07:13:11;;;;;;;41.78;13.07;;;6.30;99.90;;;;;;5083057;28;20051;-73
2022/11/05 07:15:38;;;;;;;30.73;12.27;;;6.30;99.90;;;;;;5082923;28;20028;-73
2022/11/05 07:18:06;;;;;;;25.35;11.25;;;6.40;99.90;;;;;;5082502;28;20145;-73
2022/11/05 07:20:34;;;;;;;31.65;12.70;;;6.50;99.90;;;;;;5065092;28;20075;-73
2022/11/05 07:23:12;;;;;;;26.52;11.13;;;6.70;99.90;;;;;;5083204;28;20027;-73
2022/11/05 07:25:41;;;;;;;33.45;12.20;;;6.80;99.90;;;;;;5079758;28;20420;-72
2022/11/05 07:28:10;;;;;;;30.42;12.52;;;6.80;99.90;;;;;;5079664;28;20074;-72
2022/11/05 07:30:37;;;;;;;31.15;12.00;;;6.80;99.90;;;;;;5079195;28;20024;-71
2022/11/05 07:33:05;;;;;;;27.92;11.10;;;6.90;99.90;;;;;;5079024;28;20093;-71
2022/11/05 07:35:32;;;;;;;28.60;12.32;;;6.90;99.90;;;;;;5079043;28;20024;-71
2022/11/05 07:38:00;;;;;;;22.75;10.52;;;6.90;99.90;;;;;;5061683;28;20404;-71
2022/11/05 07:40:29;;;;;;;21.02;9.85;;;6.90;99.90;;;;;;5079057;28;20021;-71
2022/11/05 07:42:58;;;;;;;26.40;11.45;;;6.90;99.90;;;;;;5079128;28;20427;-71
2022/11/05 07:45:27;;;;;;;26.55;10.48;;;7.00;99.90;;;;;;5061159;28;20028;-71
2022/11/05 07:47:57;;;;;;;21.10;9.27;;;7.00;99.90;;;;;;5078929;28;20346;-72
2022/11/05 07:50:26;;;;;;;24.83;10.38;;;7.00;99.90;;;;;;5078782;28;20032;-71
2022/11/05 07:53:14;;;;;;;22.70;10.32;;;6.90;99.90;;;;;;5079518;28;20309;-72
2022/11/05 07:55:44;;;;;;;25.05;10.95;;;6.90;99.90;;;;;;5078499;28;20036;-72
2022/11/05 07:58:12;;;;;;;23.27;9.85;;;6.90;99.90;;;;;;5078823;28;20294;-72
2022/11/05 08:00:39;;;;;;;27.83;11.98;;;6.90;99.90;;;;;;5079039;28;20033;-71
2022/11/05 08:03:13;;;;;;;29.13;11.80;;;7.00;99.90;;;;;;5079304;28;20312;-71
2022/11/05 08:05:43;;;;;;;29.48;10.90;;;7.10;99.90;;;;;;5078545;28;20086;-72
2022/11/05 08:08:12;;;;;;;28.60;10.95;;;7.20;99.90;;;;;;5078533;28;20025;-71
2022/11/05 08:10:40;;;;;;;29.95;11.65;;;7.30;99.90;;;;;;5078410;28;20031;-70
2022/11/05 08:13:07;;;;;;;25.60;11.65;;;7.40;99.90;;;;;;5078864;28;20024;-71
2022/11/05 08:15:35;;;;;;;27.45;10.48;;;7.40;99.90;;;;;;5078701;28;20024;-71
2022/11/05 08:18:10;;;;;;;29.67;12.05;;;7.50;99.90;;;;;;5078177;28;20052;-71
2022/11/05 08:20:38;;;;;;;26.23;10.98;;;7.50;99.90;;;;;;5078244;28;20066;-71
2022/11/05 08:23:06;;;;;;;25.90;11.23;;;7.50;99.90;;;;;;5078441;28;20100;-70
2022/11/05 08:25:34;;;;;;;28.77;11.07;;;7.60;99.90;;;;;;5060375;28;20043;-70
2022/11/05 08:28:06;;;;;;;22.05;10.90;;;7.60;99.90;;;;;;5078033;28;20045;-69
2022/11/05 08:30:34;;;;;;;24.95;10.93;;;7.60;99.90;;;;;;5077962;28;20024;-70
2022/11/05 08:33:04;;;;;;;23.98;11.57;;;7.70;99.90;;;;;;5060435;28;20029;-71
2022/11/05 08:35:33;;;;;;;23.77;11.02;;;7.80;99.90;;;;;;5077926;28;20420;-70
2022/11/05 08:38:01;;;;;;;22.55;10.82;;;7.80;99.90;;;;;;5078104;28;20036;-70
2022/11/05 08:40:31;;;;;;;24.42;10.90;;;7.90;99.90;;;;;;5077836;28;20020;-69
2022/11/05 08:43:02;;;;;;;22.23;11.32;;;7.90;99.90;;;;;;5077911;28;20329;-69
2022/11/05 08:45:30;;;;;;;26.17;12.00;;;8.00;99.90;;;;;;5078128;28;20078;-69
2022/11/05 08:48:02;;;;;;;24.02;12.50;;;8.10;99.90;;;;;;5078306;28;20017;-68
2022/11/05 08:50:31;;;;;;;27.65;13.20;;;8.20;99.90;;;;;;5077657;28;20020;-71
2022/11/05 08:52:58;;;;;;;26.10;12.95;;;8.30;99.90;;;;;;5077823;28;20452;-71
2022/11/05 08:55:26;;;;;;;25.52;12.48;;;8.30;99.90;;;;;;5077852;28;20024;-71
2022/11/05 08:58:03;;;;;;;25.85;13.05;;;8.30;99.90;;;;;;5078057;28;20031;-71
2022/11/05 09:00:33;;;;;;;28.48;12.73;;;8.40;99.90;;;;;;5077091;28;20040;-72
2022/11/05 09:03:02;;;;;;;25.50;13.43;;;8.40;99.90;;;;;;5078197;28;20040;-71
2022/11/05 09:05:30;;;;;;;29.25;13.95;;;8.40;99.90;;;;;;5077396;28;20020;-71
2022/11/05 09:07:58;;;;;;;30.73;14.07;;;8.50;99.90;;;;;;5077652;28;20103;-70
2022/11/05 09:10:27;;;;;;;25.88;13.27;;;8.60;99.90;;;;;;5077294;28;20124;-71
2022/11/05 09:12:55;;;;;;;29.95;13.35;;;8.60;99.90;;;;;;5077338;28;20029;-72
2022/11/05 09:15:23;;;;;;;28.05;13.73;;;8.60;99.90;;;;;;5077126;28;20031;-71
2022/11/05 09:17:50;;;;;;;31.33;15.77;;;8.60;99.90;;;;;;5077592;28;20435;-70
2022/11/05 09:20:18;;;;;;;31.33;14.75;;;8.60;99.90;;;;;;5059677;28;20020;-70
2022/11/05 09:22:46;;;;;;;33.45;16.40;;;8.60;99.90;;;;;;5077262;28;20020;-72
2022/11/05 09:25:17;;;;;;;29.27;13.85;;;8.60;99.90;;;;;;5077038;28;20025;-69
2022/11/05 09:27:45;;;;;;;26.98;13.38;;;8.70;99.90;;;;;;5077031;28;20085;-71
2022/11/05 09:30:13;;;;;;;25.17;14.02;;;8.80;99.90;;;;;;5077405;28;20032;-71
2022/11/05 09:32:40;;;;;;;25.40;13.45;;;8.90;99.90;;;;;;5077640;28;20027;-71
2022/11/05 09:35:08;;;;;;;24.77;13.05;;;9.00;99.90;;;;;;5042671;28;20028;-72
2022/11/05 09:37:39;;;;;;;21.95;12.50;;;9.10;99.90;;;;;;5077354;28;20052;-72
2022/11/05 09:40:07;;;;;;;21.75;11.45;;;9.20;99.90;;;;;;5076819;28;20013;-71
2022/11/05 09:42:41;;;;;;;20.75;11.90;;;9.20;99.90;;;;;;5076925;28;20013;-69
2022/11/05 09:45:20;;;;;;;26.17;12.80;;;9.30;99.90;;;;;;5076639;28;20077;-69
2022/11/05 09:48:05;;;;;;;19.80;11.10;;;9.30;99.90;;;;;;5076632;28;20109;-70
2022/11/05 09:50:44;;;;;;;24.20;11.95;;;9.40;99.90;;;;;;5076166;28;20028;-69
2022/11/05 09:53:17;;;;;;;27.02;13.77;;;9.40;99.90;;;;;;5077403;28;20325;-70
2022/11/05 09:55:55;;;;;;;24.02;12.68;;;9.50;99.90;;;;;;5076613;28;20320;-70
2022/11/05 09:58:46;;;;;;;20.08;12.02;;;9.50;99.90;;;;;;5076581;28;20032;-70
2022/11/05 10:01:35;;;;;;;21.88;11.88;;;9.50;99.90;;;;;;5076494;28;20020;-70
2022/11/05 10:04:19;;;;;;;24.80;13.27;;;9.40;99.90;;;;;;5076700;28;20066;-69
2022/11/05 10:06:57;;;;;;;19.15;11.43;;;9.50;99.90;;;;;;5076500;28;20017;-70
2022/11/05 10:09:46;;;;;;;25.08;12.48;;;9.40;99.90;;;;;;5076625;28;20029;-70
2022/11/05 10:12:41;;;;;;;25.63;12.02;;;9.50;99.90;;;;;;5076958;28;20103;-70
2022/11/05 10:15:33;;;;;;;20.73;11.88;;;9.60;99.90;;;;;;5076354;28;20100;-70
2022/11/05 10:18:40;;;;;;;27.85;12.95;;;9.60;99.90;;;;;;5076416;28;20029;-70
2022/11/05 10:21:17;;;;;;;24.02;12.82;;;9.70;99.90;;;;;;5046006;28;20320;-70
2022/11/05 10:23:46;;;;;;;21.75;12.63;;;9.90;99.90;;;;;;5074205;28;20059;-70
2022/11/05 10:26:19;;;;;;;23.27;12.90;;;9.90;99.90;;;;;;5071189;28;20029;-70
2022/11/05 10:28:48;;;;;;;21.08;11.98;;;9.90;99.90;;;;;;5076350;28;20107;-70
2022/11/05 10:31:19;;;;;;;21.60;11.63;;;9.90;99.90;;;;;;5076347;28;20029;-70
2022/11/05 10:34:03;;;;;;;19.58;12.32;;;9.90;99.90;;;;;;5076415;28;20097;-70
2022/11/05 10:36:40;;;;;;;23.70;12.45;;;9.90;99.90;;;;;;5076147;28;20103;-69
2022/11/05 10:39:17;;;;;;;19.92;11.32;;;9.80;99.90;;;;;;5076114;28;20107;-70
2022/11/05 10:41:54;;;;;;;16.73;11.02;;;9.70;99.90;;;;;;5076092;28;20028;-69
2022/11/05 10:44:36;;;;;;;19.55;11.48;;;9.70;99.90;;;;;;5076677;28;20020;-70
2022/11/05 10:47:36;;;;;;;21.92;11.15;;;9.70;99.90;;;;;;5076098;28;20031;-70
2022/11/05 10:50:15;;;;;;;18.35;10.93;;;9.80;99.90;;;;;;5052838;28;20423;-70
2022/11/05 10:52:56;;;;;;;23.48;10.10;;;9.80;99.90;;;;;;5076710;28;20025;-70
2022/11/05 10:55:31;;;;;;;18.05;10.20;;;10.00;99.90;;;;;;5076062;28;20025;-70
2022/11/05 10:58:18;;;;;;;17.10;8.75;;;10.00;99.90;;;;;;5076091;28;20016;-70
2022/11/05 11:01:04;;;;;;;19.08;9.23;;;10.10;99.90;;;;;;5057989;28;20035;-70
2022/11/05 11:03:47;;;;;;;15.95;8.80;;;10.30;99.90;;;;;;5060370;28;20032;-70
2022/11/05 11:06:31;;;;;;;14.45;8.25;;;10.50;99.90;;;;;;5059734;28;20048;-70
2022/11/05 11:09:05;;;;;;;15.75;7.88;;;10.60;99.90;;;;;;5059832;28;20142;-70
2022/11/05 11:11:39;;;;;;;15.48;9.23;;;10.60;99.90;;;;;;5059646;28;20441;-70
2022/11/05 11:14:12;;;;;;;13.95;8.30;;;10.60;99.90;;;;;;5059174;28;20493;-70
2022/11/05 11:16:42;;;;;;;13.60;7.15;;;10.70;99.90;;;;;;5059953;28;20025;-70
2022/11/05 11:19:26;;;;;;;15.23;8.48;;;10.70;99.90;;;;;;5059918;28;20044;-69
2022/11/05 11:22:06;;;;;;;14.25;7.57;;;10.80;99.90;;;;;;5059408;28;20017;-70
2022/11/05 11:24:41;;;;;;;13.15;6.25;;;11.00;99.90;;;;;;5059903;28;20021;-70
2022/11/05 11:27:17;;;;;;;15.45;6.38;;;11.10;99.90;;;;;;5058257;28;20028;-71
2022/11/05 11:29:49;;;;;;;12.82;6.45;;;11.20;99.90;;;;;;5058164;28;20055;-71
2022/11/05 11:32:20;;;;;;;15.65;5.13;;;11.40;99.90;;;;;;5058205;28;20029;-71
2022/11/05 11:34:52;;;;;;;10.18;5.78;;;11.50;99.90;;;;;;5059159;28;20032;-72
2022/11/05 11:37:30;;;;;;;11.07;6.35;;;11.60;99.90;;;;;;5058667;28;20067;-72
2022/11/05 11:40:23;;;;;;;7.85;4.97;;;11.70;99.90;;;;;;5059075;28;20445;-70
2022/11/05 11:42:56;;;;;;;11.00;3.97;;;11.70;99.90;;;;;;5059225;28;20021;-71
2022/11/05 11:45:38;;;;;;;11.65;4.00;;;11.80;99.90;;;;;;5058906;28;20384;-71
2022/11/05 11:48:07;;;;;;;13.80;3.85;;;11.90;99.90;;;;;;5058967;28;20036;-71
2022/11/05 11:50:44;;;;;;;5.72;3.28;;;11.90;99.90;;;;;;5059161;28;20021;-71
2022/11/05 11:53:21;;;;;;;6.47;2.85;;;12.00;99.90;;;;;;5059005;28;20035;-71
2022/11/05 11:55:57;;;;;;;6.57;4.05;;;12.00;99.90;;;;;;5058705;28;20152;-72
2022/11/05 11:58:47;;;;;;;11.70;3.58;;;11.90;99.90;;;;;;5060281;28;20056;-70
2022/11/05 12:01:39;;;;;;;11.52;3.53;;;11.80;99.90;;;;;;5078635;28;20032;-70
2022/11/05 12:04:24;;;;;;;7.28;2.95;;;11.80;99.90;;;;;;5078869;28;20028;-69
2022/11/05 12:07:08;;;;;;;10.02;3.85;;;11.80;99.90;;;;;;5078624;28;20438;-70
2022/11/05 12:10:12;;;;;;;10.77;4.20;;;12.00;99.90;;;;;;5079079;28;20049;-70
2022/11/05 12:13:04;;;;;;;8.35;3.38;;;12.20;99.90;;;;;;5060187;28;20024;-71
2022/11/05 12:15:44;;;;;;;7.60;3.17;;;12.30;99.90;;;;;;5060575;28;20021;-71
2022/11/05 12:18:58;;;;;;;8.35;3.05;;;12.40;99.90;;;;;;5078875;28;20108;-71
2022/11/05 12:21:48;;;;;;;5.35;2.85;;;12.50;99.90;;;;;;5075177;28;20031;-71
2022/11/05 12:24:46;;;;;;;5.35;2.75;;;12.50;99.90;;;;;;5078945;28;20023;-75
2022/11/05 12:27:33;;;;;;;9.63;3.50;;;12.50;99.90;;;;;;5078707;28;20023;-70
2022/11/05 12:30:19;;;;;;;10.50;3.35;;;12.40;99.90;;;;;;5078141;28;20438;-71
2022/11/05 12:32:56;;;;;;;7.45;3.13;;;12.30;99.90;;;;;;5078226;28;20107;-71
2022/11/05 12:35:46;;;;;;;7.35;3.95;;;12.20;99.90;;;;;;5060219;28;20022;-71
2022/11/05 12:38:31;;;;;;;9.70;3.20;;;12.00;99.90;;;;;;5077910;28;20029;-71
2022/11/05 12:41:17;;;;;;;7.63;2.65;;;11.90;99.90;;;;;;5078404;28;20469;-71
2022/11/05 12:44:11;;;;;;;8.63;2.73;;;11.70;99.90;;;;;;5078174;28;20052;-71
2022/11/05 12:47:01;;;;;;;9.90;3.60;;;11.40;99.90;;;;;;5049237;28;20170;-71
2022/11/05 12:49:53;;;;;;;11.30;3.17;;;11.10;99.90;;;;;;5077787;28;20025;-71
2022/11/05 12:52:44;;;;;;;9.38;3.28;;;10.90;99.90;;;;;;5060002;28;20063;-71
2022/11/05 12:55:25;;;;;;;11.15;3.30;;;10.80;99.90;;;;;;5078159;28;20056;-71
2022/11/05 12:58:11;;;;;;;6.35;2.50;;;10.60;99.90;;;;;;5077651;28;20028;-71
2022/11/05 13:00:44;;;;;;;7.30;3.33;;;10.60;99.90;;;;;;5077443;28;20115;-71
2022/11/05 13:03:33;;;;;;;9.70;2.95;;;10.50;99.90;;;;;;5077993;28;20028;-70
2022/11/05 13:06:09;;;;;;;5.45;2.47;;;10.60;99.90;;;;;;5077342;28;20017;-71
2022/11/05 13:08:45;;;;;;;7.55;2.92;;;10.60;99.90;;;;;;5077601;28;20500;-76
2022/11/05 13:11:37;;;;;;;10.05;2.92;;;10.70;99.90;;;;;;5077300;28;20452;-70
2022/11/05 13:14:30;;;;;;;6.65;2.33;;;10.90;99.90;;;;;;5077176;28;20074;-71
2022/11/05 13:17:14;;;;;;;6.18;2.70;;;11.00;99.90;;;;;;5077314;28;20066;-69
2022/11/05 13:19:54;;;;;;;5.68;2.17;;;11.10;99.90;;;;;;5077699;28;20028;-72
2022/11/05 13:22:38;;;;;;;4.85;2.00;;;11.20;99.90;;;;;;5077670;28;20028;-69
2022/11/05 13:25:27;;;;;;;9.52;2.35;;;11.20;99.90;;;;;;5076234;28;20420;-69
2022/11/05 13:27:59;;;;;;;5.07;1.70;;;11.20;99.90;;;;;;5077107;28;20028;-69
2022/11/05 13:30:40;;;;;;;4.03;1.92;;;11.10;99.90;;;;;;5076818;28;20032;-69
2022/11/05 13:33:22;;;;;;;5.80;2.05;;;11.10;99.90;;;;;;5077255;28;20025;-69
2022/11/05 13:39:25;;;;;;;4.38;1.95;;;11.10;99.90;;;;;;5077078;28;20332;-69
2022/11/05 13:42:11;;;;;;;6.88;1.52;;;11.20;99.90;;;;;;5077093;28;20047;-69
2022/11/05 13:45:15;;;;;;;7.10;1.42;;;11.20;99.90;;;;;;5076695;28;20024;-69
2022/11/05 13:48:05;;;;;;;7.47;1.58;;;11.20;99.90;;;;;;5076669;28;20119;-69
2022/11/05 13:50:36;;;;;;;5.13;1.33;;;11.10;99.90;;;;;;5077276;28;20060;-69
2022/11/05 13:53:28;;;;;;;2.75;0.95;;;11.00;99.90;;;;;;5076962;28;20020;-69
2022/11/05 13:56:09;;;;;;;5.32;1.30;;;10.90;99.90;;;;;;5077370;28;20024;-69
2022/11/05 13:59:11;;;;;;;6.88;1.58;;;10.90;99.90;;;;;;5076805;28;20048;-69
2022/11/05 14:01:44;;;;;;;4.40;1.10;;;10.80;99.90;;;;;;5076536;28;20482;-69
2022/11/05 14:04:34;;;;;;;7.22;2.03;;;10.80;99.90;;;;;;5077300;28;20035;-69
2022/11/05 14:07:13;;;;;;;2.40;0.90;;;10.80;99.90;;;;;;5076594;28;20019;-69